createdAt,value
2022-12-18T00:03:49.840Z,-4.40
2022-12-18T00:08:33.632Z,-4.60
2022-12-18T00:13:17.184Z,-4.70
2022-12-18T00:18:00.994Z,-4.80
2022-12-18T00:22:45.890Z,-5.00
2022-12-18T00:27:29.453Z,-5.20
2022-12-18T00:32:12.904Z,-5.20
2022-12-18T00:36:56.896Z,-5.00
2022-12-18T00:41:59.016Z,-5.10
2022-12-18T00:46:42.922Z,-5.20
2022-12-18T00:51:26.915Z,-5.10
2022-12-18T00:56:10.363Z,-5.00
2022-12-18T01:00:55.896Z,-4.70
2022-12-18T01:05:41.978Z,-4.50
2022-12-18T01:10:26.667Z,-4.50
2022-12-18T01:15:12.201Z,-4.50
2022-12-18T01:19:57.098Z,-4.50
2022-12-18T01:24:40.571Z,-4.40
2022-12-18T01:29:24.089Z,-4.40
2022-12-18T01:34:08.103Z,-4.20
2022-12-18T01:38:54.257Z,-4.10
2022-12-18T01:43:50.907Z,-4.20
2022-12-18T01:48:34.418Z,-4.20
2022-12-18T01:53:21.299Z,-4.20
2022-12-18T01:58:07.062Z,-4.10
2022-12-18T02:02:51.473Z,-4.10
2022-12-18T02:07:45.322Z,-4.10
2022-12-18T02:12:36.503Z,-4.10
2022-12-18T02:17:24.445Z,-4.00
2022-12-18T02:22:20.885Z,-4.00
2022-12-18T02:27:08.207Z,-4.00
2022-12-18T02:31:56.258Z,-3.90
2022-12-18T02:36:43.361Z,-3.90
2022-12-18T02:41:27.444Z,-3.90
2022-12-18T02:46:35.485Z,-3.90
2022-12-18T02:51:26.152Z,-4.00
2022-12-18T02:56:15.868Z,-4.20
2022-12-18T03:01:04.438Z,-4.30
2022-12-18T03:05:52.930Z,-4.20
2022-12-18T03:10:41.789Z,-4.20
2022-12-18T03:15:29.642Z,-4.10
2022-12-18T03:20:16.738Z,-3.90
2022-12-18T03:25:05.225Z,-3.80
2022-12-18T03:29:53.529Z,-3.70
2022-12-18T03:34:40.258Z,-3.70
2022-12-18T03:39:23.837Z,-3.60
2022-12-18T03:44:13.871Z,-3.80
2022-12-18T03:49:04.100Z,-3.90
2022-12-18T03:53:53.436Z,-3.70
2022-12-18T03:58:40.729Z,-3.70
2022-12-18T04:03:28.578Z,-3.60
2022-12-18T04:08:12.492Z,-3.50
2022-12-18T04:12:58.931Z,-3.40
2022-12-18T04:17:50.072Z,-3.40
2022-12-18T04:22:35.009Z,-3.30
2022-12-18T04:27:18.449Z,-3.30
2022-12-18T04:32:01.894Z,-3.20
2022-12-18T04:36:45.313Z,-3.20
2022-12-18T04:41:30.469Z,-3.20
2022-12-18T04:46:13.953Z,-3.20
2022-12-18T04:50:57.412Z,-3.20
2022-12-18T04:55:41.116Z,-3.20
2022-12-18T05:00:25.979Z,-3.20
2022-12-18T05:05:10.615Z,-3.20
2022-12-18T05:09:54.004Z,-3.10
2022-12-18T05:14:37.823Z,-3.10
2022-12-18T05:19:23.670Z,-3.10
2022-12-18T05:24:07.764Z,-3.10
2022-12-18T05:28:51.529Z,-3.10
2022-12-18T05:33:37.046Z,-3.10
2022-12-18T05:38:23.030Z,-3.10
2022-12-18T05:43:06.451Z,-3.10
2022-12-18T05:47:49.897Z,-3.10
2022-12-18T05:52:33.383Z,-3.10
2022-12-18T05:57:18.268Z,-3.10
2022-12-18T06:02:01.802Z,-3.10
2022-12-18T06:06:45.394Z,-3.20
2022-12-18T06:11:29.734Z,-3.30
2022-12-18T06:16:14.678Z,-3.30
2022-12-18T06:20:58.430Z,-3.20
2022-12-18T06:25:42.117Z,-3.20
2022-12-18T06:30:25.823Z,-3.20
2022-12-18T06:35:11.425Z,-3.20
2022-12-18T06:39:55.056Z,-3.20
2022-12-18T06:44:38.521Z,-3.30
2022-12-18T06:49:25.034Z,-3.30
2022-12-18T06:54:12.334Z,-3.30
2022-12-18T06:58:56.145Z,-3.30
2022-12-18T07:03:40.605Z,-3.30
2022-12-18T07:08:24.631Z,-3.30
2022-12-18T07:13:09.492Z,-3.30
2022-12-18T07:17:52.893Z,-3.30
2022-12-18T07:22:36.392Z,-3.30
2022-12-18T07:27:20.516Z,-3.20
2022-12-18T07:32:05.554Z,-3.20
2022-12-18T07:36:49.355Z,-3.10
2022-12-18T07:41:32.858Z,-3.10
2022-12-18T07:46:17.938Z,-3.00
2022-12-18T07:51:03.879Z,-3.00
2022-12-18T07:56:25.079Z,-2.90
2022-12-18T08:00:51.960Z,-2.80
2022-12-18T08:05:36.195Z,-2.70
2022-12-18T08:10:21.700Z,-2.60
2022-12-18T08:15:05.451Z,-2.60
2022-12-18T08:19:49.902Z,-2.50
2022-12-18T08:24:33.360Z,-2.30
2022-12-18T08:29:21.677Z,-2.30
2022-12-18T08:34:05.603Z,-2.30
2022-12-18T08:38:50.129Z,-2.20
2022-12-18T08:43:51.016Z,-2.10
2022-12-18T08:48:36.045Z,-1.90
2022-12-18T08:53:19.531Z,-1.90
2022-12-18T08:58:03.729Z,-1.90
2022-12-18T09:02:47.419Z,-1.80
2022-12-18T09:07:35.132Z,-1.60
2022-12-18T09:12:18.641Z,-1.60
2022-12-18T09:17:02.209Z,-1.50
2022-12-18T09:21:48.264Z,-1.30
2022-12-18T09:26:33.692Z,-1.30
2022-12-18T09:31:18.208Z,-1.20
2022-12-18T09:36:12.731Z,-1.10
2022-12-18T09:41:02.527Z,-1.00
2022-12-18T09:45:53.354Z,-0.90
2022-12-18T09:50:41.169Z,-0.60
2022-12-18T09:55:36.680Z,-0.50
2022-12-18T10:00:23.073Z,-0.30
2022-12-18T10:05:11.777Z,-0.40
2022-12-18T10:10:05.277Z,-0.30
2022-12-18T10:14:55.798Z,-0.30
2022-12-18T10:19:50.465Z,-0.30
2022-12-18T10:24:43.308Z,-0.30
2022-12-18T10:29:28.538Z,-0.10
2022-12-18T10:34:12.437Z,-0.20
2022-12-18T10:38:56.342Z,-0.10
2022-12-18T10:43:42.134Z,-0.10
2022-12-18T10:48:27.553Z,-0.10
2022-12-18T10:53:21.904Z,-0.10
2022-12-18T10:58:26.923Z,0.10
2022-12-18T11:03:32.868Z,0.30
2022-12-18T11:08:24.891Z,0.60
2022-12-18T11:13:14.396Z,0.70
2022-12-18T11:17:58.550Z,1.20
2022-12-18T11:22:43.413Z,2.20
2022-12-18T11:27:27.863Z,2.30
2022-12-18T11:32:35.339Z,1.10
2022-12-18T11:37:21.033Z,0.60
2022-12-18T11:42:14.619Z,0.20
2022-12-18T11:47:02.923Z,0.00
2022-12-18T11:51:52.567Z,0.40
2022-12-18T11:56:42.893Z,0.80
2022-12-18T12:01:44.281Z,0.60
2022-12-18T12:06:38.345Z,0.60
2022-12-18T12:11:31.420Z,0.40
2022-12-18T12:16:20.456Z,0.40
2022-12-18T12:21:12.810Z,0.70
2022-12-18T12:26:02.441Z,0.80
2022-12-18T12:30:57.569Z,0.50
2022-12-18T12:35:50.103Z,0.30
2022-12-18T12:40:52.621Z,0.40
2022-12-18T12:45:44.666Z,0.40
2022-12-18T12:50:30.169Z,0.50
2022-12-18T12:55:19.724Z,0.40
2022-12-18T13:00:11.624Z,0.40
2022-12-18T13:05:01.910Z,0.50
2022-12-18T13:10:17.832Z,0.40
2022-12-18T13:15:26.033Z,0.40
2022-12-18T13:20:14.111Z,0.50
2022-12-18T13:24:59.522Z,0.50
2022-12-18T13:29:45.659Z,0.50
2022-12-18T13:34:32.993Z,0.50
2022-12-18T13:39:35.331Z,0.40
2022-12-18T13:44:35.885Z,0.40
2022-12-18T13:49:26.114Z,0.40
2022-12-18T13:54:22.517Z,0.30
2022-12-18T13:59:12.438Z,0.20
2022-12-18T14:04:11.610Z,0.10
2022-12-18T14:08:55.719Z,0.00
2022-12-18T14:13:44.584Z,-0.10
2022-12-18T14:18:33.182Z,-0.10
2022-12-18T14:23:29.922Z,-0.20
2022-12-18T14:28:18.177Z,-0.20
2022-12-18T14:33:08.336Z,-0.30
2022-12-18T14:37:52.618Z,-0.40
2022-12-18T14:42:36.443Z,-0.60
2022-12-18T14:47:21.119Z,-0.80
2022-12-18T14:52:08.567Z,-0.90
2022-12-18T14:57:00.364Z,-0.90
2022-12-18T15:01:50.820Z,-1.00
2022-12-18T15:06:37.507Z,-1.20
2022-12-18T15:11:50.976Z,-1.30
2022-12-18T15:16:37.445Z,-1.40
2022-12-18T15:21:23.633Z,-1.40
2022-12-18T15:26:10.301Z,-1.40
2022-12-18T15:31:26.562Z,-1.40
2022-12-18T15:36:14.868Z,-1.60
2022-12-18T15:41:01.481Z,-1.70
2022-12-18T15:45:46.972Z,-1.70
2022-12-18T15:50:33.694Z,-1.80
2022-12-18T15:55:38.386Z,-1.90
2022-12-18T16:00:25.805Z,-1.90
2022-12-18T16:05:18.600Z,-1.90
2022-12-18T16:10:04.961Z,-1.90
2022-12-18T16:14:54.537Z,-2.10
2022-12-18T16:19:40.287Z,-2.00
2022-12-18T16:24:26.240Z,-2.10
2022-12-18T16:29:14.232Z,-2.00
2022-12-18T16:34:15.831Z,-2.00
2022-12-18T16:39:02.268Z,-2.00
2022-12-18T16:43:53.049Z,-2.00
2022-12-18T16:48:41.544Z,-2.10
2022-12-18T16:53:26.925Z,-2.10
2022-12-18T16:58:18.596Z,-2.30
2022-12-18T17:03:04.634Z,-2.30
2022-12-18T17:07:51.939Z,-2.40
2022-12-18T17:12:38.089Z,-2.40
2022-12-18T17:17:24.188Z,-2.50
2022-12-18T17:22:10.233Z,-2.40
2022-12-18T17:26:57.926Z,-2.40
2022-12-18T17:31:44.603Z,-2.40
2022-12-18T17:36:31.422Z,-2.40
2022-12-18T17:41:17.433Z,-2.50
2022-12-18T17:46:07.491Z,-2.50
2022-12-18T17:50:54.501Z,-2.50
2022-12-18T17:55:39.427Z,-2.50
2022-12-18T18:00:32.531Z,-2.50
2022-12-18T18:05:21.374Z,-2.50
2022-12-18T18:10:06.980Z,-2.50
2022-12-18T18:14:52.058Z,-2.30
2022-12-18T18:19:37.205Z,-2.20
2022-12-18T18:24:26.720Z,-2.10
2022-12-18T18:29:17.246Z,-2.10
2022-12-18T18:34:05.181Z,-2.10
2022-12-18T18:38:50.817Z,-2.10
2022-12-18T18:43:37.991Z,-2.10
2022-12-18T18:48:24.358Z,-2.10
2022-12-18T18:53:11.279Z,-2.10
2022-12-18T18:57:56.609Z,-2.10
2022-12-18T19:02:43.547Z,-2.10
2022-12-18T19:07:30.519Z,-2.10
2022-12-18T19:12:32.912Z,-2.20
2022-12-18T19:17:17.730Z,-2.20
2022-12-18T19:22:04.675Z,-2.20
2022-12-18T19:26:50.759Z,-2.30
2022-12-18T19:31:36.639Z,-2.30
2022-12-18T19:36:24.009Z,-2.30
2022-12-18T19:41:14.044Z,-2.30
2022-12-18T19:46:01.131Z,-2.30
2022-12-18T19:51:08.816Z,-2.20
2022-12-18T19:55:53.539Z,-2.10
2022-12-18T20:00:40.382Z,-2.20
2022-12-18T20:05:29.125Z,-2.10
2022-12-18T20:10:17.998Z,-2.10
2022-12-18T20:15:14.989Z,-2.10
2022-12-18T20:20:15.749Z,-2.10
2022-12-18T20:25:03.856Z,-2.00
2022-12-18T20:29:49.248Z,-2.00
2022-12-18T20:34:34.306Z,-2.10
2022-12-18T20:39:20.863Z,-2.00
2022-12-18T20:44:07.293Z,-2.00
2022-12-18T20:48:58.505Z,-2.10
2022-12-18T20:53:43.646Z,-2.10
2022-12-18T20:58:29.610Z,-2.10
2022-12-18T21:03:13.984Z,-2.10
2022-12-18T21:07:59.142Z,-2.10
2022-12-18T21:13:01.690Z,-2.00
2022-12-18T21:17:50.118Z,-2.00
2022-12-18T21:22:34.032Z,-2.00
2022-12-18T21:27:18.330Z,-2.00
2022-12-18T21:32:02.126Z,-2.00
2022-12-18T21:36:48.301Z,-2.00
2022-12-18T21:41:49.286Z,-2.00
2022-12-18T21:46:35.640Z,-2.00
2022-12-18T21:51:19.233Z,-2.00
2022-12-18T21:56:04.930Z,-2.00
2022-12-18T22:00:48.880Z,-2.10
2022-12-18T22:05:32.469Z,-2.20
2022-12-18T22:10:16.101Z,-2.20
2022-12-18T22:15:00.972Z,-2.10
2022-12-18T22:19:44.507Z,-2.10
2022-12-18T22:24:29.482Z,-2.10
2022-12-18T22:29:33.627Z,-2.00
2022-12-18T22:34:23.013Z,-2.00
2022-12-18T22:39:09.010Z,-2.00
2022-12-18T22:43:52.538Z,-1.90
2022-12-18T22:48:36.561Z,-1.90
2022-12-18T22:53:22.742Z,-1.90
2022-12-18T22:58:06.181Z,-1.90
2022-12-18T23:02:53.230Z,-1.90
2022-12-18T23:07:39.672Z,-1.90
2022-12-18T23:12:25.026Z,-1.90
2022-12-18T23:17:08.631Z,-1.90
2022-12-18T23:21:52.530Z,-1.90
2022-12-18T23:26:38.321Z,-1.90
2022-12-18T23:31:25.395Z,-1.80
2022-12-18T23:36:10.041Z,-1.80
2022-12-18T23:40:54.223Z,-1.80
2022-12-18T23:45:40.292Z,-1.80
2022-12-18T23:50:29.747Z,-1.80
2022-12-18T23:55:13.687Z,-1.80
2022-12-18T23:59:57.149Z,-1.70
